This demonstration page uses our WeatherBlox Daily Observations layout. Learn more.

41.55636, -103.73856

Hourly Observations for September 16, 2019

Temp ( °F °C ) Dew Point ( °F °C ) Humidity (%) Winds ( mph kmh ) Pressure ( in mb ) Visibility ( mi km ) Precip ( " mm )
12:58 am 00:58 Mostly Cloudy 62 16.5 50 10.1 66 66 S 7 11 29.83 1010 10 16.09344 0 0
1:58 am 01:58 Mostly Cloudy 61 16.2 50 10.1 67 67 S 7 11 29.83 1010 10 16.09344 0 0
2:58 am 02:58 Cloudy 60 15.3 51 10.6 74 74 S 8 13 29.8 1009 10 16.09344 0 0
3:58 am 03:58 Mostly Cloudy 60 15.8 50 10.2 70 70 Calm 29.8 1009 10 16.09344 0 0
4:58 am 04:58 Mostly Cloudy 58 14.2 49 9.7 75 75 W 6 9 29.8 1009 10 16.09344 0 0
5:58 am 05:58 Mostly Cloudy 56 13.6 49 9.7 77 77 SSW 6 9 29.8 1009 10 16.09344 0 0
6:58 am 06:58 Sunny 55 12.6 49 9.6 82 82 S 7 11 29.83 1010 10 16.09344 0 0
7:58 am 07:58 Mostly Cloudy 57 13.8 51 10.7 82 82 SSW 6 9 29.83 1010 10 16.09344 0 0
8:58 am 08:58 Mostly Cloudy 62 16.5 52 10.9 70 70 WSW 3 6 29.83 1010 10 16.09344 0 0
9:58 am 09:58 Mostly Cloudy 67 19.2 51 10.3 57 57 SW 6 9 29.8 1009 10 16.09344 0 0
11:56 am 11:56 Mostly Sunny 76 24.4 46 7.9 35 35 NNW 6 9 29.77 1008 10 16.09344 0 0
12:58 pm 12:58 Mostly Sunny 81 27.1 42 5.5 25 25 NNW 5 7 29.74 1007 10 16.09344 0 0
1:58 pm 13:58 Sunny 82 27.6 43 5.9 25 25 NW 3 6 29.74 1007 10 16.09344 0 0
2:58 pm 14:58 Mostly Sunny 83 28.5 44 6.7 25 25 Calm 29.74 1007 10 16.09344 0 0
3:58 pm 15:58 Sunny 84 28.8 43 6.2 24 24 NE 5 7 29.71 1006 10 16.09344 0 0
4:58 pm 16:58 Sunny 80 26.9 46 7.5 29 29 E 5 7 29.71 1006 10 16.09344 0 0
5:58 pm 17:58 Partly Cloudy 77 24.8 46 7.8 34 34 ESE 3 6 29.74 1007 10 16.09344 0 0
6:58 pm 18:58 Mostly Sunny 74 23.5 49 9.7 42 42 S 7 11 29.74 1007 10 16.09344 0 0
7:58 pm 19:58 Clear 67 19.6 50 10.1 54 54 SSE 6 9 29.77 1008 10 16.09344 0 0
8:58 pm 20:58 Cloudy 67 19.5 51 10.3 55 55 S 8 13 29.77 1008 10 16.09344 0 0
9:58 pm 21:58 Cloudy 67 19.3 50 9.8 54 54 SSW 7 11 29.74 1007 10 16.09344 0 0
10:58 pm 22:58 Clear 62 16.8 49 9.4 62 62 SSW 9 15 29.71 1006 10 16.09344 0 0
11:58 pm 23:58 Clear 60 15.7 50 9.9 69 69 S 7 11 29.74 1007 10 16.09344 0 0

Powered by AerisWeather